createdAt,value
2023-03-05T00:00:10.484Z,13.82
2023-03-05T00:01:15.040Z,18.10
2023-03-05T00:02:16.529Z,21.42
2023-03-05T00:03:17.974Z,16.38
2023-03-05T00:04:19.555Z,17.55
2023-03-05T00:05:21.060Z,19.20
2023-03-05T00:06:25.011Z,28.02
2023-03-05T00:07:26.419Z,20.70
2023-03-05T00:08:28.888Z,21.30
2023-03-05T00:09:30.299Z,17.30
2023-03-05T00:10:31.759Z,16.90
2023-03-05T00:11:33.790Z,20.48
2023-03-05T00:12:35.291Z,24.58
2023-03-05T00:13:37.985Z,20.58
2023-03-05T00:14:40.398Z,17.45
2023-03-05T00:15:42.870Z,14.90
2023-03-05T00:16:44.329Z,16.73
2023-03-05T00:17:45.775Z,22.50
2023-03-05T00:18:47.810Z,11.70
2023-03-05T00:19:49.246Z,20.45
2023-03-05T00:20:51.236Z,16.63
2023-03-05T00:21:52.697Z,21.88
2023-03-05T00:22:54.115Z,18.30
2023-03-05T00:23:57.178Z,21.67
2023-03-05T00:24:58.611Z,27.17
2023-03-05T00:26:05.133Z,17.40
2023-03-05T00:27:06.636Z,16.02
2023-03-05T00:28:08.701Z,15.32
2023-03-05T00:29:14.702Z,19.00
2023-03-05T00:30:16.244Z,16.90
2023-03-05T00:31:21.975Z,14.45
2023-03-05T00:32:23.762Z,17.30
2023-03-05T00:33:25.209Z,18.10
2023-03-05T00:34:27.996Z,25.60
2023-03-05T00:35:29.456Z,24.02
2023-03-05T00:36:31.011Z,15.02
2023-03-05T00:37:32.852Z,17.50
2023-03-05T00:38:34.905Z,21.02
2023-03-05T00:39:36.417Z,21.85
2023-03-05T00:40:39.548Z,21.02
2023-03-05T00:41:41.151Z,18.38
2023-03-05T00:42:42.697Z,19.67
2023-03-05T00:43:44.452Z,26.23
2023-03-05T00:44:45.860Z,9.55
2023-03-05T00:45:47.743Z,22.58
2023-03-05T00:46:49.306Z,19.42
2023-03-05T00:47:50.750Z,14.75
2023-03-05T00:48:52.180Z,20.42
2023-03-05T00:49:53.646Z,19.23
2023-03-05T00:50:55.188Z,15.07
2023-03-05T00:51:56.584Z,21.77
2023-03-05T00:52:58.100Z,20.38
2023-03-05T00:53:59.602Z,19.38
2023-03-05T00:55:01.038Z,19.73
2023-03-05T00:56:02.606Z,18.08
2023-03-05T00:57:05.758Z,22.52
2023-03-05T00:58:07.224Z,23.58
2023-03-05T00:59:08.989Z,18.00
2023-03-05T01:00:12.403Z,18.02
2023-03-05T01:01:14.295Z,22.45
2023-03-05T01:02:15.786Z,24.70
2023-03-05T01:03:20.220Z,15.55
2023-03-05T01:04:21.627Z,16.00
2023-03-05T01:05:23.109Z,16.13
2023-03-05T01:06:24.653Z,19.45
2023-03-05T01:07:26.050Z,15.93
2023-03-05T01:08:27.599Z,13.93
2023-03-05T01:09:29.037Z,13.07
2023-03-05T01:10:30.507Z,12.95
2023-03-05T01:11:32.111Z,15.75
2023-03-05T01:12:33.568Z,21.40
2023-03-05T01:13:35.353Z,12.77
2023-03-05T01:14:36.762Z,16.63
2023-03-05T01:15:38.329Z,21.85
2023-03-05T01:16:39.778Z,15.98
2023-03-05T01:17:41.257Z,15.80
2023-03-05T01:18:42.835Z,14.15
2023-03-05T01:19:44.493Z,9.98
2023-03-05T01:20:46.047Z,10.57
2023-03-05T01:21:47.468Z,13.50
2023-03-05T01:22:49.235Z,19.27
2023-03-05T01:23:50.701Z,14.95
2023-03-05T01:24:52.272Z,15.45
2023-03-05T01:25:58.826Z,18.70
2023-03-05T01:27:00.286Z,15.57
2023-03-05T01:28:01.773Z,12.73
2023-03-05T01:29:04.233Z,11.07
2023-03-05T01:30:07.734Z,14.40
2023-03-05T01:31:12.431Z,14.43
2023-03-05T01:32:13.959Z,12.48
2023-03-05T01:33:15.610Z,10.75
2023-03-05T01:34:18.032Z,12.18
2023-03-05T01:35:23.038Z,15.90
2023-03-05T01:36:25.138Z,12.25
2023-03-05T01:38:28.141Z,12.45
2023-03-05T01:39:29.554Z,10.65
2023-03-05T01:40:32.189Z,11.10
2023-03-05T01:41:34.171Z,18.15
2023-03-05T01:42:35.660Z,12.93
2023-03-05T01:43:37.527Z,9.85
2023-03-05T01:44:38.988Z,11.75
2023-03-05T01:46:19.042Z,15.20
2023-03-05T01:47:20.476Z,10.18
2023-03-05T01:48:21.959Z,10.20
2023-03-05T01:49:38.508Z,10.43
2023-03-05T01:50:39.949Z,13.02
2023-03-05T01:51:48.089Z,9.10
2023-03-05T01:53:54.917Z,10.63
2023-03-05T01:54:59.737Z,11.93
2023-03-05T01:56:01.523Z,9.18
2023-03-05T01:57:15.824Z,9.95
2023-03-05T01:58:17.413Z,7.13
2023-03-05T01:59:19.292Z,12.98
2023-03-05T02:00:32.030Z,12.30
2023-03-05T02:01:40.969Z,6.65
2023-03-05T02:02:48.767Z,9.77
2023-03-05T02:03:50.223Z,12.98
2023-03-05T02:05:02.730Z,10.30
2023-03-05T02:06:04.432Z,8.45
2023-03-05T02:07:07.121Z,6.43
2023-03-05T02:08:10.807Z,9.50
2023-03-05T02:09:13.090Z,8.55
2023-03-05T02:10:27.573Z,11.70
2023-03-05T02:11:29.558Z,8.23
2023-03-05T02:12:31.045Z,10.13
2023-03-05T02:13:35.661Z,10.13
2023-03-05T02:14:38.534Z,7.47
2023-03-05T02:15:41.714Z,10.95
2023-03-05T02:16:43.431Z,8.05
2023-03-05T02:17:45.454Z,10.48
2023-03-05T02:18:46.856Z,11.02
2023-03-05T02:19:54.135Z,11.98
2023-03-05T02:20:55.481Z,9.40
2023-03-05T02:21:56.962Z,7.47
2023-03-05T02:22:58.391Z,10.75
2023-03-05T02:23:59.804Z,11.70
2023-03-05T02:25:01.329Z,9.35
2023-03-05T02:26:08.636Z,12.10
2023-03-05T02:27:10.470Z,10.82
2023-03-05T02:28:27.701Z,10.20
2023-03-05T02:29:30.339Z,9.43
2023-03-05T02:30:31.867Z,8.88
2023-03-05T02:31:33.597Z,11.43
2023-03-05T02:32:35.142Z,13.70
2023-03-05T02:33:36.671Z,9.00
2023-03-05T02:34:38.361Z,7.28
2023-03-05T02:35:40.041Z,8.57
2023-03-05T02:36:41.494Z,8.57
2023-03-05T02:37:43.144Z,9.15
2023-03-05T02:38:45.842Z,12.07
2023-03-05T02:39:47.223Z,15.18
2023-03-05T02:40:48.672Z,6.80
2023-03-05T02:41:50.101Z,8.57
2023-03-05T02:42:51.523Z,11.38
2023-03-05T02:43:52.991Z,4.95
2023-03-05T02:44:54.426Z,11.93
2023-03-05T02:45:56.112Z,10.32
2023-03-05T02:46:57.638Z,6.18
2023-03-05T02:47:59.069Z,10.77
2023-03-05T02:49:00.790Z,10.15
2023-03-05T02:50:02.651Z,14.35
2023-03-05T02:51:06.768Z,8.13
2023-03-05T02:52:08.326Z,11.65
2023-03-05T02:53:09.718Z,11.00
2023-03-05T02:54:11.161Z,13.43
2023-03-05T02:55:12.676Z,9.45
2023-03-05T02:56:14.174Z,9.65
2023-03-05T02:57:16.389Z,4.95
2023-03-05T02:58:18.715Z,9.95
2023-03-05T02:59:20.123Z,11.73
2023-03-05T03:00:24.738Z,7.97
2023-03-05T03:01:28.327Z,10.48
2023-03-05T03:02:29.785Z,8.35
2023-03-05T03:03:31.450Z,6.03
2023-03-05T03:04:33.031Z,10.25
2023-03-05T03:05:35.821Z,11.05
2023-03-05T03:06:37.311Z,10.73
2023-03-05T03:07:38.752Z,8.27
2023-03-05T03:08:40.167Z,9.82
2023-03-05T03:09:43.091Z,12.00
2023-03-05T03:10:44.570Z,11.73
2023-03-05T03:11:46.056Z,5.57
2023-03-05T03:12:47.507Z,9.05
2023-03-05T03:13:48.915Z,8.93
2023-03-05T03:14:50.326Z,13.05
2023-03-05T03:16:02.367Z,9.73
2023-03-05T03:17:03.823Z,8.90
2023-03-05T03:18:05.268Z,6.13
2023-03-05T03:19:06.685Z,9.70
2023-03-05T03:20:10.927Z,7.13
2023-03-05T03:21:18.347Z,6.47
2023-03-05T03:22:19.791Z,9.45
2023-03-05T03:23:21.189Z,11.10
2023-03-05T03:24:22.670Z,7.25
2023-03-05T03:25:24.120Z,9.05
2023-03-05T03:26:25.606Z,8.38
2023-03-05T03:27:27.636Z,11.88
2023-03-05T03:28:29.034Z,9.38
2023-03-05T03:29:30.886Z,9.65
2023-03-05T03:30:32.435Z,7.68
2023-03-05T03:31:33.969Z,10.20
2023-03-05T03:32:35.502Z,7.13
2023-03-05T03:33:36.941Z,10.15
2023-03-05T03:34:38.367Z,8.20
2023-03-05T03:35:39.972Z,9.85
2023-03-05T03:36:43.574Z,10.23
2023-03-05T03:37:45.018Z,9.40
2023-03-05T03:38:46.438Z,10.88
2023-03-05T03:39:47.911Z,9.60
2023-03-05T03:40:49.383Z,9.65
2023-03-05T03:41:52.444Z,10.75
2023-03-05T03:42:54.594Z,7.28
2023-03-05T03:44:57.392Z,7.03
2023-03-05T03:45:58.832Z,5.20
2023-03-05T03:47:00.278Z,4.93
2023-03-05T03:48:01.801Z,6.95
2023-03-05T03:49:03.994Z,6.95
2023-03-05T03:51:07.658Z,4.50
2023-03-05T03:52:09.371Z,7.65
2023-03-05T03:53:14.299Z,6.15
2023-03-05T03:54:16.590Z,7.53
2023-03-05T03:55:18.119Z,7.65
2023-03-05T03:56:19.676Z,12.45
2023-03-05T03:57:21.131Z,8.40
2023-03-05T03:58:22.598Z,9.63
2023-03-05T03:59:24.152Z,8.85
2023-03-05T04:00:25.607Z,9.18
2023-03-05T04:01:27.058Z,11.68
2023-03-05T04:02:28.524Z,10.02
2023-03-05T04:03:30.007Z,9.63
2023-03-05T04:04:31.436Z,8.48
2023-03-05T04:05:32.901Z,12.88
2023-03-05T04:06:34.538Z,9.02
2023-03-05T04:07:35.977Z,7.07
2023-03-05T04:08:37.371Z,11.68
2023-03-05T04:09:38.833Z,7.00
2023-03-05T04:10:40.498Z,7.93
2023-03-05T04:11:41.994Z,8.23
2023-03-05T04:12:43.521Z,5.43
2023-03-05T04:13:46.405Z,8.85
2023-03-05T04:14:48.738Z,6.70
2023-03-05T04:15:50.315Z,9.70
2023-03-05T04:16:51.882Z,8.50
2023-03-05T04:17:53.286Z,10.30
2023-03-05T04:18:54.723Z,7.95
2023-03-05T04:19:56.126Z,7.53
2023-03-05T04:20:57.502Z,7.82
2023-03-05T04:21:59.378Z,9.40
2023-03-05T04:23:00.896Z,11.35
2023-03-05T04:24:02.544Z,9.10
2023-03-05T04:25:06.486Z,6.35
2023-03-05T04:26:08.045Z,7.80
2023-03-05T04:27:10.251Z,10.02
2023-03-05T04:29:13.355Z,7.97
2023-03-05T04:30:15.008Z,7.00
2023-03-05T04:31:17.269Z,6.97
2023-03-05T04:32:23.123Z,5.57
2023-03-05T04:33:24.632Z,6.82
2023-03-05T04:34:26.136Z,7.47
2023-03-05T04:35:27.845Z,10.13
2023-03-05T04:36:29.279Z,8.40
2023-03-05T04:37:30.679Z,10.27
2023-03-05T04:38:32.198Z,9.20
2023-03-05T04:39:33.658Z,15.40
2023-03-05T04:40:35.375Z,6.43
2023-03-05T04:41:36.910Z,9.65
2023-03-05T04:42:38.346Z,7.50
2023-03-05T04:43:39.765Z,6.68
2023-03-05T04:44:41.193Z,13.95
2023-03-05T04:45:43.908Z,7.18
2023-03-05T04:46:45.729Z,8.40
2023-03-05T04:47:47.163Z,10.95
2023-03-05T04:48:49.269Z,6.68
2023-03-05T04:50:52.180Z,5.90
2023-03-05T04:51:53.597Z,6.22
2023-03-05T04:52:55.013Z,8.20
2023-03-05T04:53:56.510Z,6.45
2023-03-05T04:54:57.955Z,8.88
2023-03-05T04:56:01.499Z,10.43
2023-03-05T04:57:03.468Z,7.22
2023-03-05T04:58:04.894Z,5.95
2023-03-05T04:59:06.291Z,5.60
2023-03-05T05:00:14.198Z,8.77
2023-03-05T05:01:15.720Z,9.68
2023-03-05T05:02:17.167Z,6.88
2023-03-05T05:03:19.055Z,7.20
2023-03-05T05:04:20.518Z,10.73
2023-03-05T05:05:25.535Z,7.13
2023-03-05T05:06:26.986Z,7.13
2023-03-05T05:07:29.795Z,11.18
2023-03-05T05:08:31.275Z,6.88
2023-03-05T05:09:32.853Z,6.93
2023-03-05T05:10:34.403Z,7.60
2023-03-05T05:11:35.931Z,6.95
2023-03-05T05:12:37.899Z,9.15
2023-03-05T05:13:39.330Z,6.72
2023-03-05T05:14:40.784Z,11.05
2023-03-05T05:15:42.253Z,9.18
2023-03-05T05:16:43.786Z,6.20
2023-03-05T05:17:45.677Z,8.73
2023-03-05T05:18:47.254Z,10.82
2023-03-05T05:19:48.835Z,9.32
2023-03-05T05:20:50.636Z,6.57
2023-03-05T05:21:52.069Z,10.90
2023-03-05T05:22:53.502Z,12.07
2023-03-05T05:23:54.916Z,6.47
2023-03-05T05:24:56.580Z,8.70
2023-03-05T05:25:59.718Z,10.50
2023-03-05T05:27:01.147Z,7.78
2023-03-05T05:28:02.629Z,8.25
2023-03-05T05:29:04.217Z,12.55
2023-03-05T05:30:07.576Z,8.77
2023-03-05T05:31:10.906Z,6.93
2023-03-05T05:32:12.426Z,9.85
2023-03-05T05:33:13.877Z,6.50
2023-03-05T05:34:16.254Z,9.85
2023-03-05T05:35:17.793Z,8.88
2023-03-05T05:36:21.482Z,9.10
2023-03-05T05:37:22.943Z,13.68
2023-03-05T05:38:24.361Z,8.82
2023-03-05T05:39:25.850Z,8.05
2023-03-05T05:40:27.251Z,8.77
2023-03-05T05:41:28.734Z,14.27
2023-03-05T05:42:30.225Z,5.97
2023-03-05T05:43:31.834Z,7.97
2023-03-05T05:44:34.866Z,5.65
2023-03-05T05:45:38.242Z,6.22
2023-03-05T05:46:39.870Z,8.68
2023-03-05T05:47:41.348Z,6.85
2023-03-05T05:48:42.941Z,9.57
2023-03-05T05:49:44.422Z,10.70
2023-03-05T05:50:45.845Z,8.88
2023-03-05T05:51:47.364Z,8.73
2023-03-05T05:52:50.570Z,7.75
2023-03-05T05:53:52.474Z,9.15
2023-03-05T05:54:53.900Z,10.40
2023-03-05T05:55:55.336Z,10.38
2023-03-05T05:56:56.814Z,8.45
2023-03-05T05:57:58.339Z,9.07
2023-03-05T05:58:59.839Z,7.78
2023-03-05T06:00:01.346Z,9.80
2023-03-05T06:01:03.301Z,9.30
2023-03-05T06:02:05.619Z,9.85
2023-03-05T06:03:07.850Z,10.00
2023-03-05T06:04:09.413Z,5.82
2023-03-05T06:05:13.250Z,8.30
2023-03-05T06:06:17.453Z,10.52
2023-03-05T06:07:18.910Z,7.40
2023-03-05T06:08:20.338Z,8.50
2023-03-05T06:09:21.772Z,9.82
2023-03-05T06:10:23.169Z,9.60
2023-03-05T06:11:24.584Z,14.38
2023-03-05T06:12:26.066Z,12.95
2023-03-05T06:13:27.490Z,11.93
2023-03-05T06:14:29.013Z,5.80
2023-03-05T06:15:30.766Z,10.90
2023-03-05T06:16:32.152Z,8.98
2023-03-05T06:17:33.532Z,9.00
2023-03-05T06:18:35.556Z,7.43
2023-03-05T06:19:36.988Z,7.95
2023-03-05T06:20:38.421Z,11.50
2023-03-05T06:21:40.148Z,8.45
2023-03-05T06:22:41.572Z,9.65
2023-03-05T06:23:43.729Z,11.15
2023-03-05T06:25:46.491Z,8.00
2023-03-05T06:26:49.124Z,7.28
2023-03-05T06:27:50.617Z,6.38
2023-03-05T06:28:52.942Z,10.23
2023-03-05T06:29:54.518Z,6.45
2023-03-05T06:31:03.495Z,8.43
2023-03-05T06:32:05.285Z,9.23
2023-03-05T06:33:06.952Z,9.25
2023-03-05T06:34:08.435Z,7.53
2023-03-05T06:35:10.028Z,9.80
2023-03-05T06:36:14.800Z,17.15
2023-03-05T06:37:16.367Z,7.88
2023-03-05T06:38:17.793Z,7.75
2023-03-05T06:39:19.230Z,9.82
2023-03-05T06:40:20.768Z,10.23
2023-03-05T06:41:26.718Z,6.63
2023-03-05T06:42:28.176Z,12.68
2023-03-05T06:43:29.697Z,8.15
2023-03-05T06:44:31.131Z,6.18
2023-03-05T06:45:32.577Z,9.15
2023-03-05T06:46:37.322Z,6.35
2023-03-05T06:47:38.770Z,7.75
2023-03-05T06:48:40.796Z,7.32
2023-03-05T06:49:42.273Z,9.95
2023-03-05T06:50:43.690Z,5.55
2023-03-05T06:51:45.101Z,6.15
2023-03-05T06:52:49.570Z,12.88
2023-03-05T06:53:52.334Z,9.20
2023-03-05T06:54:55.740Z,5.20
2023-03-05T06:55:57.234Z,8.02
2023-03-05T06:56:59.012Z,6.75
2023-03-05T06:58:00.452Z,5.97
2023-03-05T06:59:02.025Z,7.28
2023-03-05T07:00:10.061Z,11.05
2023-03-05T07:01:12.734Z,6.32
2023-03-05T07:02:14.299Z,13.30
2023-03-05T07:03:15.781Z,7.40
2023-03-05T07:04:17.284Z,7.05
2023-03-05T07:05:18.707Z,5.13
2023-03-05T07:06:21.392Z,6.65
2023-03-05T07:07:22.839Z,9.27
2023-03-05T07:08:24.303Z,5.63
2023-03-05T07:09:25.767Z,7.90
2023-03-05T07:10:27.203Z,6.53
2023-03-05T07:11:29.406Z,6.95
2023-03-05T07:12:30.857Z,7.85
2023-03-05T07:13:32.330Z,4.60
2023-03-05T07:14:33.772Z,8.82
2023-03-05T07:15:39.310Z,7.03
2023-03-05T07:16:40.812Z,10.65
2023-03-05T07:17:42.221Z,5.80
2023-03-05T07:18:44.132Z,8.43
2023-03-05T07:19:45.687Z,7.88
2023-03-05T07:20:47.146Z,5.97
2023-03-05T07:21:48.630Z,5.95
2023-03-05T07:22:50.083Z,5.78
2023-03-05T07:23:54.409Z,5.65
2023-03-05T07:24:55.802Z,6.15
2023-03-05T07:25:57.387Z,8.13
2023-03-05T07:26:59.246Z,8.38
2023-03-05T07:28:00.762Z,7.13
2023-03-05T07:29:02.461Z,7.10
2023-03-05T07:30:04.858Z,8.07
2023-03-05T07:31:09.021Z,7.05
2023-03-05T07:32:10.512Z,6.78
2023-03-05T07:33:11.990Z,6.40
2023-03-05T07:34:13.424Z,5.32
2023-03-05T07:35:14.972Z,4.53
2023-03-05T07:36:17.594Z,6.22
2023-03-05T07:37:19.042Z,8.32
2023-03-05T07:38:21.185Z,5.95
2023-03-05T07:40:24.038Z,3.75
2023-03-05T07:41:25.496Z,5.18
2023-03-05T07:42:27.074Z,8.20
2023-03-05T07:43:28.569Z,8.02
2023-03-05T07:44:29.999Z,8.85
2023-03-05T07:45:32.015Z,7.65
2023-03-05T07:46:34.314Z,4.30
2023-03-05T07:47:36.031Z,8.32
2023-03-05T07:48:37.506Z,9.38
2023-03-05T07:49:41.493Z,7.40
2023-03-05T07:50:43.815Z,7.70
2023-03-05T07:51:45.264Z,8.38
2023-03-05T07:52:46.700Z,7.03
2023-03-05T07:53:50.535Z,8.65
2023-03-05T07:54:52.054Z,6.55
2023-03-05T07:55:53.502Z,11.05
2023-03-05T07:56:55.254Z,8.57
2023-03-05T07:57:56.857Z,5.13
2023-03-05T07:58:59.551Z,8.63
2023-03-05T08:00:00.995Z,8.15
2023-03-05T08:01:03.233Z,10.52
2023-03-05T08:02:04.929Z,8.68
2023-03-05T08:03:06.741Z,4.72
2023-03-05T08:04:10.641Z,9.60
2023-03-05T08:05:12.112Z,4.30
2023-03-05T08:06:13.565Z,5.97
2023-03-05T08:07:16.608Z,8.73
2023-03-05T08:08:18.716Z,8.50
2023-03-05T08:10:21.656Z,5.78
2023-03-05T08:11:23.078Z,5.15
2023-03-05T08:12:24.564Z,6.57
2023-03-05T08:13:25.984Z,6.65
2023-03-05T08:14:27.529Z,7.18
2023-03-05T08:15:30.718Z,10.27
2023-03-05T08:16:32.229Z,3.60
2023-03-05T08:17:33.646Z,6.47
2023-03-05T08:18:35.455Z,9.00
2023-03-05T08:19:36.876Z,8.25
2023-03-05T08:20:38.273Z,7.35
2023-03-05T08:21:39.686Z,5.45
2023-03-05T08:22:41.129Z,11.85
2023-03-05T08:23:42.545Z,6.85
2023-03-05T08:24:43.941Z,3.47
2023-03-05T08:25:45.380Z,9.55
2023-03-05T08:26:46.816Z,4.40
2023-03-05T08:27:48.653Z,6.10
2023-03-05T08:28:50.459Z,7.55
2023-03-05T08:29:51.968Z,6.97
2023-03-05T08:30:53.455Z,4.75
2023-03-05T08:31:55.705Z,16.42
2023-03-05T08:32:57.349Z,5.47
2023-03-05T08:34:00.886Z,4.90
2023-03-05T08:35:04.516Z,3.13
2023-03-05T08:36:07.120Z,5.70
2023-03-05T08:37:09.795Z,5.55
2023-03-05T08:38:11.389Z,5.18
2023-03-05T08:39:12.900Z,4.85
2023-03-05T08:40:15.305Z,6.63
2023-03-05T08:41:17.906Z,4.80
2023-03-05T08:42:19.326Z,5.97
2023-03-05T08:43:20.814Z,3.58
2023-03-05T08:44:22.269Z,6.78
2023-03-05T08:45:23.840Z,5.43
2023-03-05T08:46:25.438Z,5.57
2023-03-05T08:47:27.948Z,5.68
2023-03-05T08:48:31.568Z,4.20
2023-03-05T08:49:33.346Z,6.45
2023-03-05T08:50:38.842Z,4.95
2023-03-05T08:51:40.465Z,4.65
2023-03-05T08:52:41.907Z,5.90
2023-03-05T08:53:44.586Z,4.05
2023-03-05T08:54:46.023Z,10.30
2023-03-05T08:55:57.706Z,5.75
2023-03-05T08:56:59.297Z,6.57
2023-03-05T08:58:00.712Z,4.65
2023-03-05T08:59:04.027Z,7.70
2023-03-05T09:00:07.232Z,7.30
2023-03-05T09:01:08.951Z,2.33
2023-03-05T09:02:12.638Z,8.63
2023-03-05T09:03:14.192Z,6.07
2023-03-05T09:04:15.903Z,6.28
2023-03-05T09:05:19.066Z,7.13
2023-03-05T09:06:20.600Z,8.32
2023-03-05T09:07:22.042Z,7.72
2023-03-05T09:08:23.538Z,6.25
2023-03-05T09:09:25.113Z,5.25
2023-03-05T09:10:26.529Z,6.43
2023-03-05T09:11:27.935Z,5.05
2023-03-05T09:12:29.352Z,6.15
2023-03-05T09:13:30.876Z,4.50
2023-03-05T09:14:32.337Z,6.00
2023-03-05T09:15:33.738Z,4.30
2023-03-05T09:16:36.231Z,4.50
2023-03-05T09:17:39.182Z,4.97
2023-03-05T09:18:41.220Z,8.65
2023-03-05T09:19:42.672Z,8.00
2023-03-05T09:20:44.095Z,8.52
2023-03-05T09:21:45.504Z,7.55
2023-03-05T09:22:46.963Z,4.10
2023-03-05T09:23:48.419Z,3.92
2023-03-05T09:24:49.872Z,7.72
2023-03-05T09:25:51.385Z,5.57
2023-03-05T09:26:52.809Z,4.40
2023-03-05T09:27:54.369Z,6.53
2023-03-05T09:28:55.799Z,7.68
2023-03-05T09:29:57.239Z,4.22
2023-03-05T09:31:03.237Z,8.60
2023-03-05T09:32:05.101Z,7.97
2023-03-05T09:33:06.890Z,9.50
2023-03-05T09:34:09.192Z,4.55
2023-03-05T09:35:10.917Z,5.05
2023-03-05T09:36:31.936Z,7.57
2023-03-05T09:37:34.201Z,5.97
2023-03-05T09:38:37.691Z,6.25
2023-03-05T09:39:39.410Z,7.32
2023-03-05T09:40:53.509Z,5.18
2023-03-05T09:43:34.489Z,5.05
2023-03-05T09:44:50.447Z,6.25
2023-03-05T09:46:04.797Z,7.88
2023-03-05T09:47:24.395Z,6.25
2023-03-05T09:49:01.203Z,6.38
2023-03-05T09:50:12.545Z,5.85
2023-03-05T09:51:30.104Z,4.70
2023-03-05T09:52:41.119Z,7.88
2023-03-05T09:53:51.210Z,4.45
2023-03-05T09:54:54.986Z,5.43
2023-03-05T09:55:58.926Z,5.10
2023-03-05T09:57:04.349Z,6.38
2023-03-05T09:58:16.881Z,6.35
2023-03-05T09:59:28.520Z,6.57
2023-03-05T10:00:47.807Z,4.93
2023-03-05T10:01:52.016Z,6.70
2023-03-05T10:02:58.391Z,8.55
2023-03-05T10:04:10.197Z,4.10
2023-03-05T10:05:30.947Z,5.10
2023-03-05T10:06:36.716Z,5.63
2023-03-05T10:07:43.374Z,7.65
2023-03-05T10:09:24.734Z,5.05
2023-03-05T10:10:49.781Z,4.28
2023-03-05T10:11:59.199Z,4.68
2023-03-05T10:13:05.347Z,6.30
2023-03-05T10:14:13.855Z,4.25
2023-03-05T10:15:30.530Z,4.93
2023-03-05T10:16:56.017Z,4.85
2023-03-05T10:17:57.415Z,3.42
2023-03-05T10:19:20.020Z,5.13
2023-03-05T10:21:00.995Z,6.95
2023-03-05T10:22:18.298Z,4.28
2023-03-05T10:23:30.726Z,3.60
2023-03-05T10:24:48.025Z,4.70
2023-03-05T10:25:58.673Z,6.28
2023-03-05T10:27:16.954Z,4.65
2023-03-05T10:28:27.190Z,7.32
2023-03-05T10:29:57.966Z,5.72
2023-03-05T10:31:17.937Z,4.35
2023-03-05T10:33:00.794Z,5.72
2023-03-05T10:34:25.509Z,4.32
2023-03-05T10:35:42.236Z,5.90
2023-03-05T10:37:05.030Z,6.18
2023-03-05T10:38:12.257Z,5.85
2023-03-05T10:39:43.637Z,7.68
2023-03-05T10:41:04.285Z,6.25
2023-03-05T10:42:20.723Z,7.32
2023-03-05T10:43:26.934Z,4.30
2023-03-05T10:44:40.181Z,4.90
2023-03-05T10:45:43.028Z,9.43
2023-03-05T10:46:45.636Z,4.72
2023-03-05T10:47:59.613Z,7.32
2023-03-05T10:49:20.051Z,5.57
2023-03-05T10:50:44.816Z,4.80
2023-03-05T10:52:29.303Z,6.43
2023-03-05T10:53:53.622Z,5.97
2023-03-05T10:54:55.145Z,5.63
2023-03-05T10:56:00.517Z,7.15
2023-03-05T10:57:23.603Z,7.35
2023-03-05T10:58:25.153Z,4.40
2023-03-05T10:59:26.574Z,5.78
2023-03-05T11:00:28.831Z,4.63
2023-03-05T11:01:31.772Z,5.03
2023-03-05T11:02:52.229Z,4.07
2023-03-05T11:03:53.678Z,5.57
2023-03-05T11:04:55.215Z,8.77
2023-03-05T11:06:02.601Z,5.97
2023-03-05T11:07:32.001Z,9.85
2023-03-05T11:08:35.308Z,4.97
2023-03-05T11:09:36.848Z,4.57
2023-03-05T11:10:38.295Z,5.60
2023-03-05T11:11:39.697Z,4.93
2023-03-05T11:12:41.225Z,4.93
2023-03-05T11:14:00.470Z,5.97
2023-03-05T11:15:14.060Z,5.70
2023-03-05T11:16:28.849Z,5.90
2023-03-05T11:17:44.396Z,4.72
2023-03-05T11:18:46.837Z,5.50
2023-03-05T11:19:48.371Z,7.47
2023-03-05T11:20:50.249Z,6.65
2023-03-05T11:22:07.990Z,4.38
2023-03-05T11:23:19.832Z,7.20
2023-03-05T11:24:21.252Z,8.52
2023-03-05T11:25:25.446Z,5.97
2023-03-05T11:26:26.905Z,6.47
2023-03-05T11:27:38.002Z,5.32
2023-03-05T11:28:40.660Z,7.97
2023-03-05T11:29:49.274Z,4.35
2023-03-05T11:31:00.494Z,4.05
2023-03-05T11:32:27.266Z,8.93
2023-03-05T11:33:29.906Z,6.65
2023-03-05T11:34:35.339Z,6.63
2023-03-05T11:35:41.078Z,3.92
2023-03-05T11:37:04.564Z,5.63
2023-03-05T11:38:14.880Z,6.82
2023-03-05T11:39:18.339Z,4.63
2023-03-05T11:40:24.837Z,5.50
2023-03-05T11:41:34.928Z,5.82
2023-03-05T11:42:39.852Z,7.32
2023-03-05T11:43:43.900Z,6.15
2023-03-05T11:44:48.789Z,5.97
2023-03-05T11:45:59.242Z,5.63
2023-03-05T11:47:13.648Z,8.20
2023-03-05T11:48:26.494Z,5.82
2023-03-05T11:49:30.145Z,5.10
2023-03-05T11:50:33.950Z,6.43
2023-03-05T11:51:53.493Z,8.63
2023-03-05T11:52:59.230Z,9.50
2023-03-05T11:54:08.676Z,7.18
2023-03-05T11:55:18.383Z,5.50
2023-03-05T11:56:25.441Z,8.23
2023-03-05T11:57:29.069Z,8.93
2023-03-05T11:59:07.026Z,11.02
2023-03-05T12:00:14.923Z,4.90
2023-03-05T12:01:23.314Z,6.43
2023-03-05T12:02:27.717Z,8.07
2023-03-05T12:03:32.965Z,6.55
2023-03-05T12:04:35.524Z,4.18
2023-03-05T12:05:40.640Z,6.05
2023-03-05T12:06:57.252Z,11.23
2023-03-05T12:08:02.054Z,7.10
2023-03-05T12:09:30.526Z,4.93
2023-03-05T12:10:32.078Z,4.63
2023-03-05T12:11:34.604Z,6.78
2023-03-05T12:12:53.196Z,6.40
2023-03-05T12:13:59.569Z,7.00
2023-03-05T12:15:26.707Z,6.40
2023-03-05T12:16:36.751Z,10.30
2023-03-05T12:17:58.669Z,7.05
2023-03-05T12:19:28.494Z,8.90
2023-03-05T12:20:30.080Z,8.60
2023-03-05T12:21:39.252Z,9.45
2023-03-05T12:22:42.093Z,7.78
2023-03-05T12:23:46.690Z,7.68
2023-03-05T12:24:48.748Z,5.00
2023-03-05T12:26:53.110Z,5.70
2023-03-05T12:27:55.743Z,7.20
2023-03-05T12:28:58.424Z,6.10
2023-03-05T12:30:02.795Z,8.13
2023-03-05T12:31:21.422Z,8.65
2023-03-05T12:32:23.016Z,6.78
2023-03-05T12:33:36.872Z,7.57
2023-03-05T12:34:40.981Z,4.25
2023-03-05T12:35:42.893Z,8.13
2023-03-05T12:36:44.374Z,6.50
2023-03-05T12:37:49.217Z,8.75
2023-03-05T12:38:54.565Z,8.15
2023-03-05T12:40:01.032Z,5.07
2023-03-05T12:41:25.776Z,7.60
2023-03-05T12:42:30.583Z,7.63
2023-03-05T12:43:33.563Z,6.60
2023-03-05T12:44:35.479Z,4.28
2023-03-05T12:45:39.775Z,3.72
2023-03-05T12:46:46.125Z,3.75
2023-03-05T12:47:56.621Z,6.35
2023-03-05T12:48:58.498Z,5.85
2023-03-05T12:50:01.043Z,4.75
2023-03-05T12:51:02.558Z,6.15
2023-03-05T12:52:05.544Z,6.68
2023-03-05T12:53:07.061Z,6.60
2023-03-05T12:54:29.174Z,4.40
2023-03-05T12:55:35.139Z,4.72
2023-03-05T12:56:44.881Z,4.80
2023-03-05T12:57:47.880Z,5.25
2023-03-05T12:58:56.301Z,6.78
2023-03-05T13:00:50.136Z,6.55
2023-03-05T13:02:00.506Z,5.35
2023-03-05T13:03:08.282Z,11.30
2023-03-05T13:04:33.014Z,8.68
2023-03-05T13:05:39.157Z,6.60
2023-03-05T13:06:40.858Z,7.70
2023-03-05T13:07:42.310Z,4.63
2023-03-05T13:08:44.415Z,7.82
2023-03-05T13:10:58.937Z,9.60
2023-03-05T13:12:01.513Z,5.57
2023-03-05T13:13:03.156Z,8.02
2023-03-05T13:14:04.724Z,8.60
2023-03-05T13:15:08.779Z,7.53
2023-03-05T13:16:29.160Z,7.93
2023-03-05T13:17:53.454Z,5.95
2023-03-05T13:18:58.135Z,8.73
2023-03-05T13:20:01.766Z,8.35
2023-03-05T13:21:06.129Z,7.45
2023-03-05T13:22:11.950Z,10.65
2023-03-05T13:23:24.818Z,7.22
2023-03-05T13:24:26.459Z,5.72
2023-03-05T13:25:27.871Z,9.20
2023-03-05T13:26:40.533Z,6.28
2023-03-05T13:27:42.697Z,7.13
2023-03-05T13:30:28.437Z,6.13
2023-03-05T13:31:30.377Z,4.43
2023-03-05T13:32:33.189Z,7.28
2023-03-05T13:33:36.361Z,7.45
2023-03-05T13:34:47.286Z,10.32
2023-03-05T13:35:49.403Z,9.38
2023-03-05T13:37:00.554Z,6.55
2023-03-05T13:38:02.159Z,4.47
2023-03-05T13:39:05.620Z,4.18
2023-03-05T13:40:22.903Z,5.93
2023-03-05T13:41:27.176Z,4.30
2023-03-05T13:42:34.737Z,5.15
2023-03-05T13:43:47.991Z,6.03
2023-03-05T13:44:58.785Z,4.07
2023-03-05T13:46:00.718Z,4.82
2023-03-05T13:47:08.238Z,4.53
2023-03-05T13:48:19.525Z,6.10
2023-03-05T13:49:28.802Z,8.85
2023-03-05T13:50:35.737Z,6.30
2023-03-05T13:51:49.171Z,8.18
2023-03-05T13:52:50.615Z,6.68
2023-03-05T13:53:53.194Z,4.70
2023-03-05T13:54:54.743Z,6.28
2023-03-05T13:56:02.729Z,4.70
2023-03-05T13:57:07.623Z,6.90
2023-03-05T13:58:48.037Z,5.88
2023-03-05T13:59:53.859Z,4.15
2023-03-05T14:01:29.137Z,4.85
2023-03-05T14:02:32.448Z,4.57
2023-03-05T14:03:35.288Z,4.38
2023-03-05T14:04:41.282Z,5.18
2023-03-05T14:05:45.001Z,7.90
2023-03-05T14:06:46.381Z,4.95
2023-03-05T14:07:52.206Z,7.90
2023-03-05T14:09:17.788Z,5.32
2023-03-05T14:10:31.317Z,7.22
2023-03-05T14:11:33.861Z,5.25
2023-03-05T14:12:40.863Z,5.28
2023-03-05T14:13:43.545Z,6.80
2023-03-05T14:14:45.016Z,6.82
2023-03-05T14:16:09.866Z,4.78
2023-03-05T14:17:44.830Z,5.70
2023-03-05T14:18:58.464Z,6.93
2023-03-05T14:20:27.728Z,5.00
2023-03-05T14:21:49.728Z,5.07
2023-03-05T14:22:57.442Z,5.78
2023-03-05T14:24:12.446Z,5.68
2023-03-05T14:25:39.410Z,4.70
2023-03-05T14:26:48.978Z,8.07
2023-03-05T14:27:50.528Z,3.28
2023-03-05T14:29:01.406Z,9.90
2023-03-05T14:30:14.806Z,6.05